sensor_id;sensor_type;location;lat;lon;timestamp;P1;durP1;ratioP1;P2;durP2;ratioP2
69256;SDS011;56376;53.356;-1.748;2023-07-29T00:01:36;2.83;;;1.55;;
69256;SDS011;56376;53.356;-1.748;2023-07-29T00:04:02;2.00;;;1.80;;
69256;SDS011;56376;53.356;-1.748;2023-07-29T00:06:27;1.60;;;1.50;;
69256;SDS011;56376;53.356;-1.748;2023-07-29T00:08:53;2.50;;;1.70;;
69256;SDS011;56376;53.356;-1.748;2023-07-29T00:11:19;2.30;;;1.83;;
69256;SDS011;56376;53.356;-1.748;2023-07-29T00:13:44;2.38;;;1.73;;
69256;SDS011;56376;53.356;-1.748;2023-07-29T00:16:09;2.15;;;1.67;;
69256;SDS011;56376;53.356;-1.748;2023-07-29T00:18:35;1.63;;;1.40;;
69256;SDS011;56376;53.356;-1.748;2023-07-29T00:21:00;1.90;;;1.70;;
69256;SDS011;56376;53.356;-1.748;2023-07-29T00:23:26;2.05;;;1.63;;
69256;SDS011;56376;53.356;-1.748;2023-07-29T00:25:51;1.77;;;1.60;;
69256;SDS011;56376;53.356;-1.748;2023-07-29T00:28:17;2.22;;;1.70;;
69256;SDS011;56376;53.356;-1.748;2023-07-29T00:30:42;2.33;;;1.88;;
69256;SDS011;56376;53.356;-1.748;2023-07-29T00:33:08;3.30;;;1.83;;
69256;SDS011;56376;53.356;-1.748;2023-07-29T00:35:34;3.33;;;1.95;;
69256;SDS011;56376;53.356;-1.748;2023-07-29T00:37:59;1.73;;;1.63;;
69256;SDS011;56376;53.356;-1.748;2023-07-29T00:40:25;1.95;;;1.75;;
69256;SDS011;56376;53.356;-1.748;2023-07-29T00:42:53;2.88;;;2.00;;
69256;SDS011;56376;53.356;-1.748;2023-07-29T00:45:19;2.58;;;1.70;;
69256;SDS011;56376;53.356;-1.748;2023-07-29T00:47:45;2.05;;;1.83;;
69256;SDS011;56376;53.356;-1.748;2023-07-29T00:50:11;1.80;;;1.50;;
69256;SDS011;56376;53.356;-1.748;2023-07-29T00:52:37;2.15;;;1.80;;
69256;SDS011;56376;53.356;-1.748;2023-07-29T00:55:03;1.90;;;1.52;;
69256;SDS011;56376;53.356;-1.748;2023-07-29T00:57:30;2.22;;;1.75;;
69256;SDS011;56376;53.356;-1.748;2023-07-29T00:59:57;1.70;;;1.42;;
69256;SDS011;56376;53.356;-1.748;2023-07-29T01:02:23;2.75;;;1.73;;
69256;SDS011;56376;53.356;-1.748;2023-07-29T01:04:54;3.22;;;1.90;;
69256;SDS011;56376;53.356;-1.748;2023-07-29T01:07:24;2.08;;;1.73;;
69256;SDS011;56376;53.356;-1.748;2023-07-29T01:12:35;1.70;;;1.60;;
69256;SDS011;56376;53.356;-1.748;2023-07-29T01:15:16;2.67;;;1.80;;
69256;SDS011;56376;53.356;-1.748;2023-07-29T01:20:32;2.25;;;1.95;;
69256;SDS011;56376;53.356;-1.748;2023-07-29T01:22:58;2.33;;;2.00;;
69256;SDS011;56376;53.356;-1.748;2023-07-29T01:25:24;2.10;;;1.90;;
69256;SDS011;56376;53.356;-1.748;2023-07-29T01:27:50;2.92;;;1.98;;
69256;SDS011;56376;53.356;-1.748;2023-07-29T01:30:17;1.98;;;1.77;;
69256;SDS011;56376;53.356;-1.748;2023-07-29T01:35:17;2.88;;;1.98;;
69256;SDS011;56376;53.356;-1.748;2023-07-29T01:37:49;2.40;;;2.20;;
69256;SDS011;56376;53.356;-1.748;2023-07-29T01:40:17;2.47;;;2.00;;
69256;SDS011;56376;53.356;-1.748;2023-07-29T01:42:44;2.97;;;1.92;;
69256;SDS011;56376;53.356;-1.748;2023-07-29T01:45:11;2.45;;;1.70;;
69256;SDS011;56376;53.356;-1.748;2023-07-29T01:47:36;2.75;;;1.95;;
69256;SDS011;56376;53.356;-1.748;2023-07-29T01:50:05;2.42;;;2.22;;
69256;SDS011;56376;53.356;-1.748;2023-07-29T01:52:31;2.45;;;1.90;;
69256;SDS011;56376;53.356;-1.748;2023-07-29T01:54:56;4.10;;;2.30;;
69256;SDS011;56376;53.356;-1.748;2023-07-29T01:57:22;2.90;;;2.15;;
69256;SDS011;56376;53.356;-1.748;2023-07-29T01:59:47;2.20;;;2.00;;
69256;SDS011;56376;53.356;-1.748;2023-07-29T02:02:12;2.40;;;2.10;;
69256;SDS011;56376;53.356;-1.748;2023-07-29T02:04:38;2.42;;;2.22;;
69256;SDS011;56376;53.356;-1.748;2023-07-29T02:07:03;2.13;;;1.75;;
69256;SDS011;56376;53.356;-1.748;2023-07-29T02:09:29;3.78;;;2.03;;
69256;SDS011;56376;53.356;-1.748;2023-07-29T02:11:55;2.53;;;2.25;;
69256;SDS011;56376;53.356;-1.748;2023-07-29T02:14:21;3.72;;;2.78;;
69256;SDS011;56376;53.356;-1.748;2023-07-29T02:16:46;2.33;;;2.00;;
69256;SDS011;56376;53.356;-1.748;2023-07-29T02:19:12;3.63;;;1.90;;
69256;SDS011;56376;53.356;-1.748;2023-07-29T02:21:37;3.08;;;2.05;;
69256;SDS011;56376;53.356;-1.748;2023-07-29T02:24:03;2.78;;;2.17;;
69256;SDS011;56376;53.356;-1.748;2023-07-29T02:26:28;2.58;;;1.98;;
69256;SDS011;56376;53.356;-1.748;2023-07-29T02:28:53;2.17;;;1.60;;
69256;SDS011;56376;53.356;-1.748;2023-07-29T02:31:23;3.05;;;1.75;;
69256;SDS011;56376;53.356;-1.748;2023-07-29T02:33:50;2.33;;;1.85;;
69256;SDS011;56376;53.356;-1.748;2023-07-29T02:36:15;2.15;;;1.52;;
69256;SDS011;56376;53.356;-1.748;2023-07-29T02:38:41;2.25;;;1.85;;
69256;SDS011;56376;53.356;-1.748;2023-07-29T02:41:10;3.22;;;2.00;;
69256;SDS011;56376;53.356;-1.748;2023-07-29T02:43:37;4.15;;;1.92;;
69256;SDS011;56376;53.356;-1.748;2023-07-29T02:46:03;2.70;;;1.77;;
69256;SDS011;56376;53.356;-1.748;2023-07-29T02:48:29;4.15;;;2.10;;
69256;SDS011;56376;53.356;-1.748;2023-07-29T02:50:55;2.10;;;1.63;;
69256;SDS011;56376;53.356;-1.748;2023-07-29T02:53:21;3.03;;;1.70;;
69256;SDS011;56376;53.356;-1.748;2023-07-29T02:55:47;2.30;;;1.90;;
69256;SDS011;56376;53.356;-1.748;2023-07-29T02:58:13;4.40;;;1.60;;
69256;SDS011;56376;53.356;-1.748;2023-07-29T03:00:38;2.60;;;2.28;;
69256;SDS011;56376;53.356;-1.748;2023-07-29T03:03:06;2.13;;;1.48;;
69256;SDS011;56376;53.356;-1.748;2023-07-29T03:05:32;2.58;;;1.50;;
69256;SDS011;56376;53.356;-1.748;2023-07-29T03:07:57;3.65;;;2.13;;
69256;SDS011;56376;53.356;-1.748;2023-07-29T03:10:23;3.05;;;1.38;;
69256;SDS011;56376;53.356;-1.748;2023-07-29T03:12:48;3.60;;;1.70;;
69256;SDS011;56376;53.356;-1.748;2023-07-29T03:15:13;4.45;;;1.95;;
69256;SDS011;56376;53.356;-1.748;2023-07-29T03:17:39;2.55;;;1.83;;
69256;SDS011;56376;53.356;-1.748;2023-07-29T03:20:04;3.33;;;1.95;;
69256;SDS011;56376;53.356;-1.748;2023-07-29T03:22:30;2.72;;;1.77;;
69256;SDS011;56376;53.356;-1.748;2023-07-29T03:24:56;1.90;;;1.63;;
69256;SDS011;56376;53.356;-1.748;2023-07-29T03:27:21;2.53;;;1.90;;
69256;SDS011;56376;53.356;-1.748;2023-07-29T03:29:47;3.78;;;2.20;;
69256;SDS011;56376;53.356;-1.748;2023-07-29T03:32:12;2.95;;;1.58;;
69256;SDS011;56376;53.356;-1.748;2023-07-29T03:34:38;3.63;;;2.08;;
69256;SDS011;56376;53.356;-1.748;2023-07-29T03:37:05;3.97;;;1.85;;
69256;SDS011;56376;53.356;-1.748;2023-07-29T03:39:30;2.45;;;1.90;;
69256;SDS011;56376;53.356;-1.748;2023-07-29T03:41:56;3.47;;;1.65;;
69256;SDS011;56376;53.356;-1.748;2023-07-29T03:44:22;3.58;;;1.60;;
69256;SDS011;56376;53.356;-1.748;2023-07-29T03:46:47;4.43;;;2.00;;
69256;SDS011;56376;53.356;-1.748;2023-07-29T03:49:13;4.07;;;2.00;;
69256;SDS011;56376;53.356;-1.748;2023-07-29T03:51:41;2.45;;;1.85;;
69256;SDS011;56376;53.356;-1.748;2023-07-29T03:54:06;3.78;;;1.92;;
69256;SDS011;56376;53.356;-1.748;2023-07-29T03:56:32;2.78;;;2.15;;
69256;SDS011;56376;53.356;-1.748;2023-07-29T03:59:06;5.05;;;2.17;;
69256;SDS011;56376;53.356;-1.748;2023-07-29T04:01:32;4.78;;;2.13;;
69256;SDS011;56376;53.356;-1.748;2023-07-29T04:03:57;4.57;;;2.20;;
69256;SDS011;56376;53.356;-1.748;2023-07-29T04:06:24;3.53;;;2.25;;
69256;SDS011;56376;53.356;-1.748;2023-07-29T04:08:49;2.70;;;1.85;;
69256;SDS011;56376;53.356;-1.748;2023-07-29T04:11:15;5.43;;;2.22;;
69256;SDS011;56376;53.356;-1.748;2023-07-29T04:13:40;3.50;;;2.30;;
69256;SDS011;56376;53.356;-1.748;2023-07-29T04:16:06;3.15;;;2.00;;
69256;SDS011;56376;53.356;-1.748;2023-07-29T04:18:32;3.17;;;1.92;;
69256;SDS011;56376;53.356;-1.748;2023-07-29T04:20:57;4.00;;;2.72;;
69256;SDS011;56376;53.356;-1.748;2023-07-29T04:23:22;4.72;;;2.17;;
69256;SDS011;56376;53.356;-1.748;2023-07-29T04:25:48;3.33;;;1.90;;
69256;SDS011;56376;53.356;-1.748;2023-07-29T04:28:15;2.85;;;2.15;;
69256;SDS011;56376;53.356;-1.748;2023-07-29T04:30:40;3.85;;;2.15;;
69256;SDS011;56376;53.356;-1.748;2023-07-29T04:33:06;3.35;;;2.05;;
69256;SDS011;56376;53.356;-1.748;2023-07-29T04:35:31;2.83;;;2.35;;
69256;SDS011;56376;53.356;-1.748;2023-07-29T04:37:56;3.33;;;2.05;;
69256;SDS011;56376;53.356;-1.748;2023-07-29T04:40:22;3.08;;;2.22;;
69256;SDS011;56376;53.356;-1.748;2023-07-29T04:42:48;4.13;;;2.40;;
69256;SDS011;56376;53.356;-1.748;2023-07-29T04:45:14;4.78;;;2.78;;
69256;SDS011;56376;53.356;-1.748;2023-07-29T04:47:41;3.15;;;2.10;;
69256;SDS011;56376;53.356;-1.748;2023-07-29T04:50:06;4.07;;;1.90;;
69256;SDS011;56376;53.356;-1.748;2023-07-29T04:52:32;4.35;;;2.08;;
69256;SDS011;56376;53.356;-1.748;2023-07-29T04:54:57;3.15;;;2.03;;
69256;SDS011;56376;53.356;-1.748;2023-07-29T04:57:23;3.72;;;2.50;;
69256;SDS011;56376;53.356;-1.748;2023-07-29T04:59:48;4.85;;;2.53;;
69256;SDS011;56376;53.356;-1.748;2023-07-29T05:02:14;4.45;;;2.40;;
69256;SDS011;56376;53.356;-1.748;2023-07-29T05:04:40;3.20;;;2.13;;
69256;SDS011;56376;53.356;-1.748;2023-07-29T05:07:05;3.78;;;2.38;;
69256;SDS011;56376;53.356;-1.748;2023-07-29T05:09:31;5.45;;;2.92;;
69256;SDS011;56376;53.356;-1.748;2023-07-29T05:11:56;3.15;;;2.35;;
69256;SDS011;56376;53.356;-1.748;2023-07-29T05:14:21;4.35;;;2.75;;
69256;SDS011;56376;53.356;-1.748;2023-07-29T05:16:47;4.28;;;2.45;;
69256;SDS011;56376;53.356;-1.748;2023-07-29T05:19:12;3.78;;;2.33;;
69256;SDS011;56376;53.356;-1.748;2023-07-29T05:21:38;3.30;;;2.47;;
69256;SDS011;56376;53.356;-1.748;2023-07-29T05:24:04;3.53;;;2.40;;
69256;SDS011;56376;53.356;-1.748;2023-07-29T05:26:29;4.82;;;2.45;;
69256;SDS011;56376;53.356;-1.748;2023-07-29T05:28:54;6.60;;;2.85;;
69256;SDS011;56376;53.356;-1.748;2023-07-29T05:31:20;6.80;;;2.67;;
69256;SDS011;56376;53.356;-1.748;2023-07-29T05:33:45;5.90;;;3.45;;
69256;SDS011;56376;53.356;-1.748;2023-07-29T05:36:10;5.65;;;3.17;;
69256;SDS011;56376;53.356;-1.748;2023-07-29T05:38:36;6.07;;;2.90;;
69256;SDS011;56376;53.356;-1.748;2023-07-29T05:41:01;3.63;;;2.97;;
69256;SDS011;56376;53.356;-1.748;2023-07-29T05:43:27;3.70;;;2.70;;
69256;SDS011;56376;53.356;-1.748;2023-07-29T05:45:52;3.38;;;2.50;;
69256;SDS011;56376;53.356;-1.748;2023-07-29T05:48:19;3.10;;;2.38;;
69256;SDS011;56376;53.356;-1.748;2023-07-29T05:50:45;6.30;;;3.35;;
69256;SDS011;56376;53.356;-1.748;2023-07-29T05:53:10;3.20;;;2.53;;
69256;SDS011;56376;53.356;-1.748;2023-07-29T05:55:35;3.42;;;2.38;;
69256;SDS011;56376;53.356;-1.748;2023-07-29T05:58:01;4.60;;;2.67;;
69256;SDS011;56376;53.356;-1.748;2023-07-29T06:00:26;4.72;;;2.45;;
69256;SDS011;56376;53.356;-1.748;2023-07-29T06:02:51;3.58;;;2.75;;
69256;SDS011;56376;53.356;-1.748;2023-07-29T06:05:17;6.45;;;3.08;;
69256;SDS011;56376;53.356;-1.748;2023-07-29T06:07:42;7.47;;;3.47;;
69256;SDS011;56376;53.356;-1.748;2023-07-29T06:10:12;4.85;;;3.30;;
69256;SDS011;56376;53.356;-1.748;2023-07-29T06:12:39;4.57;;;2.95;;
69256;SDS011;56376;53.356;-1.748;2023-07-29T06:15:04;3.70;;;2.65;;
69256;SDS011;56376;53.356;-1.748;2023-07-29T06:17:30;4.25;;;2.42;;
69256;SDS011;56376;53.356;-1.748;2023-07-29T06:19:55;4.32;;;2.78;;
69256;SDS011;56376;53.356;-1.748;2023-07-29T06:22:21;4.28;;;2.75;;
69256;SDS011;56376;53.356;-1.748;2023-07-29T06:24:46;3.70;;;2.47;;
69256;SDS011;56376;53.356;-1.748;2023-07-29T06:27:11;4.25;;;2.47;;
69256;SDS011;56376;53.356;-1.748;2023-07-29T06:29:37;5.10;;;2.63;;
69256;SDS011;56376;53.356;-1.748;2023-07-29T06:32:02;3.58;;;2.50;;
69256;SDS011;56376;53.356;-1.748;2023-07-29T06:34:28;5.03;;;2.72;;
69256;SDS011;56376;53.356;-1.748;2023-07-29T06:36:53;5.70;;;2.15;;
69256;SDS011;56376;53.356;-1.748;2023-07-29T06:39:18;2.88;;;2.35;;
69256;SDS011;56376;53.356;-1.748;2023-07-29T06:41:44;4.10;;;2.10;;
69256;SDS011;56376;53.356;-1.748;2023-07-29T06:44:09;5.15;;;2.20;;
69256;SDS011;56376;53.356;-1.748;2023-07-29T06:46:34;3.53;;;1.92;;
69256;SDS011;56376;53.356;-1.748;2023-07-29T06:49:00;3.08;;;2.03;;
69256;SDS011;56376;53.356;-1.748;2023-07-29T06:51:25;4.25;;;2.03;;
69256;SDS011;56376;53.356;-1.748;2023-07-29T06:53:51;4.28;;;2.60;;
69256;SDS011;56376;53.356;-1.748;2023-07-29T06:56:17;4.25;;;2.40;;
69256;SDS011;56376;53.356;-1.748;2023-07-29T06:58:42;2.47;;;2.22;;
69256;SDS011;56376;53.356;-1.748;2023-07-29T07:01:08;3.13;;;2.38;;
69256;SDS011;56376;53.356;-1.748;2023-07-29T07:03:33;4.50;;;2.50;;
69256;SDS011;56376;53.356;-1.748;2023-07-29T07:05:58;7.75;;;3.03;;
69256;SDS011;56376;53.356;-1.748;2023-07-29T07:08:24;4.93;;;2.15;;
69256;SDS011;56376;53.356;-1.748;2023-07-29T07:10:49;3.92;;;2.35;;
69256;SDS011;56376;53.356;-1.748;2023-07-29T07:13:14;3.17;;;2.45;;
69256;SDS011;56376;53.356;-1.748;2023-07-29T07:15:40;2.85;;;2.10;;
69256;SDS011;56376;53.356;-1.748;2023-07-29T07:18:05;4.20;;;2.55;;
69256;SDS011;56376;53.356;-1.748;2023-07-29T07:20:31;3.28;;;2.15;;
69256;SDS011;56376;53.356;-1.748;2023-07-29T07:22:56;4.18;;;2.50;;
69256;SDS011;56376;53.356;-1.748;2023-07-29T07:25:21;3.25;;;2.47;;
69256;SDS011;56376;53.356;-1.748;2023-07-29T07:27:47;4.07;;;2.35;;
69256;SDS011;56376;53.356;-1.748;2023-07-29T07:30:13;5.60;;;3.53;;
69256;SDS011;56376;53.356;-1.748;2023-07-29T07:32:39;4.40;;;2.70;;
69256;SDS011;56376;53.356;-1.748;2023-07-29T07:35:04;4.85;;;2.85;;
69256;SDS011;56376;53.356;-1.748;2023-07-29T07:37:30;3.60;;;2.70;;
69256;SDS011;56376;53.356;-1.748;2023-07-29T07:39:55;2.58;;;2.33;;
69256;SDS011;56376;53.356;-1.748;2023-07-29T07:42:21;6.20;;;3.03;;
69256;SDS011;56376;53.356;-1.748;2023-07-29T07:44:46;5.32;;;2.33;;
69256;SDS011;56376;53.356;-1.748;2023-07-29T07:47:11;3.80;;;2.10;;
69256;SDS011;56376;53.356;-1.748;2023-07-29T07:49:37;4.03;;;2.38;;
69256;SDS011;56376;53.356;-1.748;2023-07-29T07:52:02;4.10;;;2.05;;
69256;SDS011;56376;53.356;-1.748;2023-07-29T07:54:28;4.47;;;2.25;;
69256;SDS011;56376;53.356;-1.748;2023-07-29T07:56:53;4.85;;;2.85;;
69256;SDS011;56376;53.356;-1.748;2023-07-29T07:59:18;5.45;;;2.55;;
69256;SDS011;56376;53.356;-1.748;2023-07-29T08:01:44;3.60;;;2.08;;
69256;SDS011;56376;53.356;-1.748;2023-07-29T08:04:10;5.13;;;2.40;;
69256;SDS011;56376;53.356;-1.748;2023-07-29T08:06:36;4.20;;;1.98;;
69256;SDS011;56376;53.356;-1.748;2023-07-29T08:09:02;5.43;;;2.25;;
69256;SDS011;56376;53.356;-1.748;2023-07-29T08:11:27;3.45;;;2.75;;
69256;SDS011;56376;53.356;-1.748;2023-07-29T08:13:53;2.75;;;1.92;;
69256;SDS011;56376;53.356;-1.748;2023-07-29T08:16:18;4.07;;;2.38;;
69256;SDS011;56376;53.356;-1.748;2023-07-29T08:18:43;2.40;;;1.55;;
69256;SDS011;56376;53.356;-1.748;2023-07-29T08:21:09;3.72;;;1.80;;
69256;SDS011;56376;53.356;-1.748;2023-07-29T08:23:35;3.97;;;1.70;;
69256;SDS011;56376;53.356;-1.748;2023-07-29T08:26:02;3.25;;;1.90;;
69256;SDS011;56376;53.356;-1.748;2023-07-29T08:28:33;2.75;;;1.90;;
69256;SDS011;56376;53.356;-1.748;2023-07-29T08:31:00;2.45;;;1.70;;
69256;SDS011;56376;53.356;-1.748;2023-07-29T08:33:26;2.58;;;2.05;;
69256;SDS011;56376;53.356;-1.748;2023-07-29T08:35:52;3.92;;;2.10;;
69256;SDS011;56376;53.356;-1.748;2023-07-29T08:38:17;3.03;;;1.80;;
69256;SDS011;56376;53.356;-1.748;2023-07-29T08:40:50;2.50;;;1.58;;
69256;SDS011;56376;53.356;-1.748;2023-07-29T08:43:18;3.50;;;1.75;;
69256;SDS011;56376;53.356;-1.748;2023-07-29T08:45:45;3.35;;;1.85;;
69256;SDS011;56376;53.356;-1.748;2023-07-29T08:48:11;3.40;;;1.60;;
69256;SDS011;56376;53.356;-1.748;2023-07-29T08:50:40;4.07;;;1.60;;
69256;SDS011;56376;53.356;-1.748;2023-07-29T08:53:06;3.47;;;1.60;;
69256;SDS011;56376;53.356;-1.748;2023-07-29T08:55:33;3.40;;;1.48;;
69256;SDS011;56376;53.356;-1.748;2023-07-29T08:57:59;3.83;;;1.77;;
69256;SDS011;56376;53.356;-1.748;2023-07-29T09:00:25;4.00;;;1.77;;
69256;SDS011;56376;53.356;-1.748;2023-07-29T09:02:51;3.33;;;1.42;;
69256;SDS011;56376;53.356;-1.748;2023-07-29T09:05:16;3.75;;;1.63;;
69256;SDS011;56376;53.356;-1.748;2023-07-29T09:07:41;4.03;;;1.70;;
69256;SDS011;56376;53.356;-1.748;2023-07-29T09:10:09;4.18;;;1.75;;
69256;SDS011;56376;53.356;-1.748;2023-07-29T09:12:38;2.40;;;1.40;;
69256;SDS011;56376;53.356;-1.748;2023-07-29T09:15:04;4.38;;;1.60;;
69256;SDS011;56376;53.356;-1.748;2023-07-29T09:17:31;3.22;;;1.48;;
69256;SDS011;56376;53.356;-1.748;2023-07-29T09:19:57;4.00;;;1.35;;
69256;SDS011;56376;53.356;-1.748;2023-07-29T09:22:23;2.55;;;1.42;;
69256;SDS011;56376;53.356;-1.748;2023-07-29T09:24:50;4.22;;;1.73;;
69256;SDS011;56376;53.356;-1.748;2023-07-29T09:27:26;3.40;;;1.60;;
69256;SDS011;56376;53.356;-1.748;2023-07-29T09:29:55;2.03;;;1.20;;
69256;SDS011;56376;53.356;-1.748;2023-07-29T09:32:21;5.25;;;1.67;;
69256;SDS011;56376;53.356;-1.748;2023-07-29T09:34:49;1.80;;;1.17;;
69256;SDS011;56376;53.356;-1.748;2023-07-29T09:37:18;2.88;;;1.50;;
69256;SDS011;56376;53.356;-1.748;2023-07-29T09:39:46;2.05;;;1.33;;
69256;SDS011;56376;53.356;-1.748;2023-07-29T09:42:20;4.00;;;1.60;;
69256;SDS011;56376;53.356;-1.748;2023-07-29T09:44:48;4.63;;;1.85;;
69256;SDS011;56376;53.356;-1.748;2023-07-29T09:47:24;3.85;;;1.80;;
69256;SDS011;56376;53.356;-1.748;2023-07-29T09:49:51;3.17;;;1.58;;
69256;SDS011;56376;53.356;-1.748;2023-07-29T09:52:18;3.13;;;1.45;;
69256;SDS011;56376;53.356;-1.748;2023-07-29T09:54:45;3.35;;;1.90;;
69256;SDS011;56376;53.356;-1.748;2023-07-29T09:57:13;3.00;;;1.42;;
69256;SDS011;56376;53.356;-1.748;2023-07-29T09:59:39;3.50;;;1.25;;
69256;SDS011;56376;53.356;-1.748;2023-07-29T10:02:04;2.95;;;1.45;;
69256;SDS011;56376;53.356;-1.748;2023-07-29T10:04:39;4.00;;;1.52;;
69256;SDS011;56376;53.356;-1.748;2023-07-29T10:07:12;2.67;;;1.20;;
69256;SDS011;56376;53.356;-1.748;2023-07-29T10:09:38;3.25;;;1.67;;
69256;SDS011;56376;53.356;-1.748;2023-07-29T10:12:05;3.13;;;1.90;;
69256;SDS011;56376;53.356;-1.748;2023-07-29T10:14:32;4.07;;;1.80;;
69256;SDS011;56376;53.356;-1.748;2023-07-29T10:16:57;2.80;;;1.30;;
69256;SDS011;56376;53.356;-1.748;2023-07-29T10:19:24;2.65;;;1.63;;
69256;SDS011;56376;53.356;-1.748;2023-07-29T10:21:53;2.72;;;1.42;;
69256;SDS011;56376;53.356;-1.748;2023-07-29T10:24:24;2.25;;;1.40;;
69256;SDS011;56376;53.356;-1.748;2023-07-29T10:26:54;3.88;;;1.75;;
69256;SDS011;56376;53.356;-1.748;2023-07-29T10:29:28;3.58;;;1.65;;
69256;SDS011;56376;53.356;-1.748;2023-07-29T10:31:57;5.55;;;1.60;;
69256;SDS011;56376;53.356;-1.748;2023-07-29T10:34:26;5.75;;;1.55;;
69256;SDS011;56376;53.356;-1.748;2023-07-29T10:36:52;2.17;;;1.30;;
69256;SDS011;56376;53.356;-1.748;2023-07-29T10:39:19;3.40;;;1.30;;
69256;SDS011;56376;53.356;-1.748;2023-07-29T10:47:14;2.78;;;1.48;;
69256;SDS011;56376;53.356;-1.748;2023-07-29T10:49:49;3.38;;;1.60;;
69256;SDS011;56376;53.356;-1.748;2023-07-29T10:52:17;1.77;;;1.13;;
69256;SDS011;56376;53.356;-1.748;2023-07-29T10:54:53;4.10;;;1.80;;
69256;SDS011;56376;53.356;-1.748;2023-07-29T10:57:40;3.00;;;1.60;;
69256;SDS011;56376;53.356;-1.748;2023-07-29T11:00:07;6.15;;;2.17;;
69256;SDS011;56376;53.356;-1.748;2023-07-29T11:02:37;3.63;;;1.35;;
69256;SDS011;56376;53.356;-1.748;2023-07-29T11:05:15;2.00;;;1.30;;
69256;SDS011;56376;53.356;-1.748;2023-07-29T11:07:43;5.32;;;1.90;;
69256;SDS011;56376;53.356;-1.748;2023-07-29T11:10:10;5.05;;;1.73;;
69256;SDS011;56376;53.356;-1.748;2023-07-29T11:17:47;3.47;;;1.40;;
69256;SDS011;56376;53.356;-1.748;2023-07-29T11:20:13;2.95;;;1.40;;
69256;SDS011;56376;53.356;-1.748;2023-07-29T11:22:39;5.05;;;1.90;;
69256;SDS011;56376;53.356;-1.748;2023-07-29T11:25:06;4.05;;;1.55;;
69256;SDS011;56376;53.356;-1.748;2023-07-29T11:27:33;5.10;;;1.80;;
69256;SDS011;56376;53.356;-1.748;2023-07-29T11:29:59;3.67;;;1.50;;
69256;SDS011;56376;53.356;-1.748;2023-07-29T11:32:27;2.17;;;1.45;;
69256;SDS011;56376;53.356;-1.748;2023-07-29T11:34:52;3.97;;;1.60;;
69256;SDS011;56376;53.356;-1.748;2023-07-29T11:37:18;3.33;;;1.70;;
69256;SDS011;56376;53.356;-1.748;2023-07-29T11:39:46;3.53;;;1.80;;
69256;SDS011;56376;53.356;-1.748;2023-07-29T11:42:12;3.13;;;1.80;;
69256;SDS011;56376;53.356;-1.748;2023-07-29T11:44:40;2.90;;;1.70;;
69256;SDS011;56376;53.356;-1.748;2023-07-29T11:47:10;3.92;;;2.20;;
69256;SDS011;56376;53.356;-1.748;2023-07-29T11:49:38;2.60;;;1.50;;
69256;SDS011;56376;53.356;-1.748;2023-07-29T11:52:05;4.18;;;1.35;;
69256;SDS011;56376;53.356;-1.748;2023-07-29T11:54:35;2.60;;;1.60;;
69256;SDS011;56376;53.356;-1.748;2023-07-29T11:57:03;3.88;;;1.55;;
69256;SDS011;56376;53.356;-1.748;2023-07-29T11:59:31;2.63;;;1.45;;
69256;SDS011;56376;53.356;-1.748;2023-07-29T12:02:00;2.42;;;1.40;;
69256;SDS011;56376;53.356;-1.748;2023-07-29T12:04:27;2.47;;;1.50;;
69256;SDS011;56376;53.356;-1.748;2023-07-29T12:06:52;4.97;;;2.00;;
69256;SDS011;56376;53.356;-1.748;2023-07-29T12:09:18;4.43;;;1.92;;
69256;SDS011;56376;53.356;-1.748;2023-07-29T12:11:43;1.98;;;1.20;;
69256;SDS011;56376;53.356;-1.748;2023-07-29T12:14:09;3.42;;;1.23;;
69256;SDS011;56376;53.356;-1.748;2023-07-29T12:16:42;3.28;;;1.58;;
69256;SDS011;56376;53.356;-1.748;2023-07-29T12:19:08;3.05;;;1.35;;
69256;SDS011;56376;53.356;-1.748;2023-07-29T12:21:33;2.28;;;1.40;;
69256;SDS011;56376;53.356;-1.748;2023-07-29T12:24:00;1.35;;;1.17;;
69256;SDS011;56376;53.356;-1.748;2023-07-29T12:26:27;2.45;;;1.45;;
69256;SDS011;56376;53.356;-1.748;2023-07-29T12:28:54;3.33;;;1.42;;
69256;SDS011;56376;53.356;-1.748;2023-07-29T12:31:19;1.98;;;1.20;;
69256;SDS011;56376;53.356;-1.748;2023-07-29T12:33:44;3.53;;;1.20;;
69256;SDS011;56376;53.356;-1.748;2023-07-29T12:36:10;2.25;;;1.35;;
69256;SDS011;56376;53.356;-1.748;2023-07-29T12:38:35;3.55;;;1.42;;
69256;SDS011;56376;53.356;-1.748;2023-07-29T12:41:01;2.92;;;1.30;;
69256;SDS011;56376;53.356;-1.748;2023-07-29T12:43:26;3.83;;;1.50;;
69256;SDS011;56376;53.356;-1.748;2023-07-29T12:45:52;3.05;;;1.30;;
69256;SDS011;56376;53.356;-1.748;2023-07-29T12:48:17;2.05;;;1.20;;
69256;SDS011;56376;53.356;-1.748;2023-07-29T12:50:43;1.98;;;1.27;;
69256;SDS011;56376;53.356;-1.748;2023-07-29T12:53:09;3.15;;;1.40;;
69256;SDS011;56376;53.356;-1.748;2023-07-29T12:55:37;4.05;;;1.90;;
69256;SDS011;56376;53.356;-1.748;2023-07-29T12:58:03;3.70;;;1.20;;
69256;SDS011;56376;53.356;-1.748;2023-07-29T13:00:28;2.45;;;1.35;;
69256;SDS011;56376;53.356;-1.748;2023-07-29T13:02:54;3.03;;;1.15;;
69256;SDS011;56376;53.356;-1.748;2023-07-29T13:05:20;3.22;;;1.50;;
69256;SDS011;56376;53.356;-1.748;2023-07-29T13:07:45;4.10;;;1.73;;
69256;SDS011;56376;53.356;-1.748;2023-07-29T13:10:11;2.75;;;1.38;;
69256;SDS011;56376;53.356;-1.748;2023-07-29T13:12:37;3.80;;;1.65;;
69256;SDS011;56376;53.356;-1.748;2023-07-29T13:15:03;3.30;;;1.40;;
69256;SDS011;56376;53.356;-1.748;2023-07-29T13:17:29;3.15;;;1.60;;
69256;SDS011;56376;53.356;-1.748;2023-07-29T13:19:55;3.22;;;1.30;;
69256;SDS011;56376;53.356;-1.748;2023-07-29T13:22:20;3.55;;;1.20;;
69256;SDS011;56376;53.356;-1.748;2023-07-29T13:24:46;2.42;;;1.17;;
69256;SDS011;56376;53.356;-1.748;2023-07-29T13:27:11;1.80;;;1.00;;
69256;SDS011;56376;53.356;-1.748;2023-07-29T13:29:37;3.63;;;1.20;;
69256;SDS011;56376;53.356;-1.748;2023-07-29T13:32:02;2.90;;;1.33;;
69256;SDS011;56376;53.356;-1.748;2023-07-29T13:34:28;1.23;;;0.80;;
69256;SDS011;56376;53.356;-1.748;2023-07-29T13:36:53;3.63;;;1.10;;
69256;SDS011;56376;53.356;-1.748;2023-07-29T13:39:19;2.65;;;1.15;;
69256;SDS011;56376;53.356;-1.748;2023-07-29T13:41:44;1.30;;;0.80;;
69256;SDS011;56376;53.356;-1.748;2023-07-29T13:44:09;1.75;;;1.00;;
69256;SDS011;56376;53.356;-1.748;2023-07-29T13:46:35;2.78;;;1.10;;
69256;SDS011;56376;53.356;-1.748;2023-07-29T13:49:00;2.30;;;1.30;;
69256;SDS011;56376;53.356;-1.748;2023-07-29T13:51:26;2.22;;;1.13;;
69256;SDS011;56376;53.356;-1.748;2023-07-29T13:53:51;10.82;;;3.17;;
69256;SDS011;56376;53.356;-1.748;2023-07-29T13:56:17;6.03;;;1.77;;
69256;SDS011;56376;53.356;-1.748;2023-07-29T13:58:42;2.85;;;1.35;;
69256;SDS011;56376;53.356;-1.748;2023-07-29T14:01:07;3.17;;;1.10;;
69256;SDS011;56376;53.356;-1.748;2023-07-29T14:03:33;1.55;;;0.98;;
69256;SDS011;56376;53.356;-1.748;2023-07-29T14:05:58;3.38;;;1.17;;
69256;SDS011;56376;53.356;-1.748;2023-07-29T14:08:23;2.97;;;1.20;;
69256;SDS011;56376;53.356;-1.748;2023-07-29T14:10:49;2.58;;;1.10;;
69256;SDS011;56376;53.356;-1.748;2023-07-29T14:13:15;2.80;;;1.23;;
69256;SDS011;56376;53.356;-1.748;2023-07-29T14:15:40;1.58;;;1.00;;
69256;SDS011;56376;53.356;-1.748;2023-07-29T14:18:05;1.55;;;0.90;;
69256;SDS011;56376;53.356;-1.748;2023-07-29T14:20:31;2.47;;;1.27;;
69256;SDS011;56376;53.356;-1.748;2023-07-29T14:22:57;1.42;;;1.17;;
69256;SDS011;56376;53.356;-1.748;2023-07-29T14:25:22;3.00;;;1.10;;
69256;SDS011;56376;53.356;-1.748;2023-07-29T14:27:48;3.95;;;1.70;;
69256;SDS011;56376;53.356;-1.748;2023-07-29T14:30:14;2.50;;;1.30;;
69256;SDS011;56376;53.356;-1.748;2023-07-29T14:32:39;2.83;;;1.20;;
69256;SDS011;56376;53.356;-1.748;2023-07-29T14:35:05;1.52;;;1.05;;
69256;SDS011;56376;53.356;-1.748;2023-07-29T14:37:31;1.90;;;1.17;;
69256;SDS011;56376;53.356;-1.748;2023-07-29T14:40:00;2.33;;;1.00;;
69256;SDS011;56376;53.356;-1.748;2023-07-29T14:42:26;3.15;;;1.20;;
69256;SDS011;56376;53.356;-1.748;2023-07-29T14:44:52;2.60;;;1.33;;
69256;SDS011;56376;53.356;-1.748;2023-07-29T14:47:18;1.85;;;0.95;;